Latest Weather Observations for Parkes Airport

IDN60801

Issued at 6:32 pm EST Monday 3 August 2015 (issued every 30 minutes, with the page automatically refreshed every 10 minutes)

About weather observations | Map of weather stations | Latest weather observations for NSW | Other Formats
Station Details ID: 065068 Name: PARKES AIRPORT AWS Lat: -33.13 Lon: 148.24 Height: 323.3 m
Data from the previous 72 hours. | See also: Recent months at Parkes Airport
Date/Time
EST
Temp
°C
App
Temp
°C
Dew
Point
Rel
Hum
%
Delta-T
°C
Wind Press
QNH
hPa
Press
MSL
hPa
Rain
since 9 am
mm
Dir
 
Spd
km/h
Gust
km/h
Spd
kts
Gust
kts
03/06:30pm 9.3 4.5 4.5 72 2.2 WSW 19 26 10 14 1021.8 1022.2 0.0
03/06:00pm 9.5 5.1 4.9 73 2.1 WSW 17 20 9 11 1021.5 1021.9 0.0
03/05:30pm 9.9 5.1 4.9 71 2.3 WSW 19 22 10 12 1021.3 1021.6 0.0
03/05:00pm 10.1 5.3 4.9 70 2.4 WSW 19 20 10 11 1020.8 1021.1 0.0
03/04:30pm 10.4 4.6 4.5 67 2.7 WSW 24 33 13 18 1020.4 1020.8 0.0
03/04:00pm 10.7 5.4 4.8 67 2.7 WSW 22 30 12 16 1020.2 1020.6 0.0
03/03:30pm 11.3 5.6 5.0 65 2.9 WSW 24 32 13 17 1020.0 1020.4 0.0
03/03:00pm 11.5 4.6 4.7 63 3.1 WSW 30 39 16 21 1019.7 1020.1 0.0
03/02:30pm 11.5 5.5 5.2 65 2.9 WSW 26 35 14 19 1019.6 1020.0 0.0
03/02:00pm 11.0 5.2 4.5 64 3.0 WSW 24 33 13 18 1019.7 1020.1 0.0
03/01:30pm 11.5 4.9 4.0 60 3.4 WSW 28 39 15 21 1019.8 1020.2 0.0
03/01:00pm 11.6 4.6 4.1 60 3.4 WSW 30 39 16 21 1019.9 1020.3 0.0
03/12:30pm 10.7 3.8 4.4 65 2.9 WSW 30 41 16 22 1020.1 1020.5 0.0
03/12:00pm 10.4 4.2 4.1 65 2.8 WSW 26 33 14 18 1020.4 1020.8 0.0
03/11:30am 10.7 4.6 5.0 68 2.6 SW 26 37 14 20 1020.8 1021.1 0.0
03/11:00am 10.6 4.6 5.2 69 2.5 WSW 26 39 14 21 1020.8 1021.1 0.0
03/10:30am 10.0 5.2 5.8 75 2.0 WSW 20 30 11 16 1021.1 1021.4 0.0
03/10:00am 8.7 5.8 6.3 85 1.1 SW 11 17 6 9 1021.2 1021.5 0.0
03/09:30am 7.2 4.9 5.5 89 0.8 SSW 7 11 4 6 1021.1 1021.4 0.0
03/09:00am 6.2 4.2 6.1 99 0.0 SSW 6 7 3 4 1021.2 1021.5 0.2
03/08:30am 4.8 3.6 4.7 99 0.0 CALM 0 0 0 0 1021.1 1021.4 0.2
03/08:00am 1.7 -1.4 1.4 98 0.1 SE 7 7 4 4 1020.8 1021.1 0.2
03/07:30am 0.4 -2.7 0.1 98 0.1 SE 6 9 3 5 1020.6 1020.9 0.0
03/07:00am 0.4 -2.9 0.1 98 0.1 SE 7 7 4 4 1020.3 1020.7 0.0
03/06:30am 0.5 -3.2 0.2 98 0.1 SE 9 9 5 5 1020.1 1020.5 0.0
03/06:00am 0.6 -3.4 0.3 98 0.1 SE 11 11 6 6 1019.9 1020.3 0.0
03/05:30am -0.2 -4.0 -0.5 98 0.1 SE 9 11 5 6 1019.9 1020.3 0.0
03/05:00am -0.3 -4.1 -0.6 98 0.1 SE 9 11 5 6 1019.9 1020.3 0.0
03/04:30am -0.6 -4.4 -0.9 98 0.1 SE 9 11 5 6 1019.6 1020.0 0.0
03/04:00am -0.4 -4.2 -0.8 97 0.1 SE 9 9 5 5 1019.7 1020.1 0.0
03/03:30am 0.2 -2.6 -0.2 97 0.1 SE 4 7 2 4 1019.7 1020.1 0.0
03/03:00am 0.9 -1.0 0.5 97 0.1 CALM 0 0 0 0 1019.7 1020.1 0.0
03/02:30am 0.5 -1.5 -0.1 96 0.2 CALM 0 0 0 0 1019.9 1020.3 0.0
03/02:00am 0.3 -1.8 -0.5 94 0.3 CALM 0 6 0 3 1020.2 1020.6 0.0
03/01:30am 2.9 0.1 2.3 96 0.2 SSW 6 7 3 4 1020.3 1020.7 0.0
03/01:00am 3.7 1.1 3.1 96 0.2 SSW 6 7 3 4 1020.4 1020.8 0.0
03/12:30am 3.9 1.3 3.0 94 0.4 SSW 6 9 3 5 1020.6 1020.9 0.0
03/12:00am 4.7 2.2 4.0 95 0.3 SSW 6 7 3 4 1020.7 1021.0 0.0
 
Date/Time
EST
Temp
°C
App
Temp
°C
Dew
Point
Rel
Hum
%
Delta-T
°C
Wind Press
QNH
hPa
Press
MSL
hPa
Rain
since 9 am
mm
Dir
 
Spd
km/h
Gust
km/h
Spd
kts
Gust
kts
02/11:30pm 4.4 0.9 3.4 93 0.4 SSW 11 15 6 8 1020.6 1020.9 0.0
02/11:00pm 5.4 1.7 4.5 94 0.4 SSW 13 15 7 8 1020.7 1021.0 0.0
02/10:30pm 5.7 1.7 5.1 96 0.3 SSW 15 17 8 9 1020.6 1020.9 0.0
02/10:00pm 5.7 2.4 4.8 94 0.4 SSW 11 15 6 8 1020.6 1020.9 0.0
02/09:30pm 5.9 2.6 4.7 92 0.5 S 11 13 6 7 1020.3 1020.7 0.0
02/09:00pm 6.9 3.8 5.5 91 0.6 S 11 13 6 7 1020.1 1020.5 0.0
02/08:30pm 8.1 4.8 6.2 88 0.9 SSW 13 17 7 9 1019.8 1020.2 0.0
02/08:00pm 9.0 5.1 7.1 88 0.9 SSW 17 22 9 12 1019.5 1019.9 0.0
02/07:30pm 8.7 5.1 6.7 87 0.9 SSW 15 20 8 11 1019.4 1019.8 0.0
02/07:00pm 9.9 5.6 7.2 83 1.3 SSW 19 22 10 12 1018.8 1019.2 0.0
02/06:30pm 10.3 5.6 7.7 84 1.3 SSW 22 30 12 16 1018.5 1018.8 0.0
02/06:00pm 10.8 6.6 8.4 85 1.2 SSW 20 32 11 17 1017.9 1018.2 0.0
02/05:30pm 10.9 5.9 8.1 83 1.4 SW 24 33 13 18 1017.3 1017.6 0.0
02/05:00pm 11.7 6.0 8.2 79 1.7 SW 28 35 15 19 1017.1 1017.5 0.0
02/04:30pm 12.6 6.2 8.7 77 2.0 SSW 32 43 17 23 1015.8 1016.1 0.0
02/04:00pm 15.1 9.9 10.3 73 2.6 SW 28 33 15 18 1015.2 1015.5 0.0
02/03:30pm 16.8 10.9 9.0 60 4.1 WSW 30 37 16 20 1014.5 1014.8 0.0
02/03:00pm 18.0 12.4 8.8 55 4.8 WSW 28 41 15 22 1014.1 1014.4 0.0
02/02:30pm 19.2 13.9 8.5 50 5.6 WNW 26 33 14 18 1013.5 1013.9 0.0
02/02:00pm 19.2 14.6 8.2 49 5.8 WNW 22 32 12 17 1013.1 1013.4 0.0
02/01:30pm 19.3 15.6 10.3 56 4.9 NNW 20 30 11 16 1013.3 1013.6 0.0
02/01:00pm 18.6 14.3 10.7 60 4.3 NNW 24 32 13 17 1013.7 1014.1 0.0
02/12:30pm 16.8 12.0 9.0 60 4.1 N 24 33 13 18 1013.7 1014.1 0.0
02/12:00pm 16.3 10.6 8.3 59 4.1 N 28 41 15 22 1014.4 1014.7 0.0
02/11:30am 16.0 10.3 8.5 61 3.9 N 28 41 15 22 1014.9 1015.2 0.0
02/11:00am 15.2 9.2 7.0 58 4.1 NNW 28 37 15 20 1015.2 1015.5 0.0
02/10:30am 14.8 8.0 6.9 59 3.9 N 32 43 17 23 1015.1 1015.4 0.0
02/10:00am 14.1 7.0 6.5 60 3.7 N 33 44 18 24 1014.9 1015.2 0.0
02/09:30am 14.3 6.8 6.2 58 4.0 N 35 50 19 27 1015.1 1015.4 0.0
02/09:21am 14.5 7.5 6.1 57 4.1 N 32 50 17 27 1015.1 1015.4 0.0
02/09:00am 14.5 7.3 5.8 56 4.2 N 33 46 18 25 1015.3 1015.6 0.0
02/08:30am 14.5 6.1 5.6 55 4.3 N 39 54 21 29 1015.3 1015.6 0.0
02/08:15am 14.5 7.2 5.6 55 4.3 N 33 57 18 31 1015.1 1015.4 0.0
02/08:00am 14.3 7.0 5.4 55 4.3 N 33 43 18 23 1015.4 1015.7 0.0
02/07:30am 14.4 7.0 5.2 54 4.4 N 33 52 18 28 1015.1 1015.4 0.0
02/07:26am 14.6 7.3 5.4 54 4.4 N 33 52 18 28 1015.0 1015.3 0.0
02/07:00am 14.5 7.2 5.3 54 4.4 N 33 43 18 23 1015.1 1015.4 0.0
02/06:30am 14.5 7.4 5.3 54 4.4 N 32 41 17 22 1015.1 1015.4 0.0
02/06:00am 14.5 7.4 5.3 54 4.4 N 32 43 17 23 1014.9 1015.2 0.0
02/05:30am 14.6 7.4 5.1 53 4.5 N 32 44 17 24 1015.1 1015.4 0.0
02/05:00am 14.3 8.0 5.7 56 4.2 N 28 35 15 19 1014.8 1015.1 0.0
02/04:30am 14.0 8.1 5.9 58 3.9 N 26 33 14 18 1014.9 1015.2 0.0
02/04:00am 13.5 8.4 6.1 61 3.6 N 22 35 12 19 1014.9 1015.2 0.0
02/03:30am 13.3 8.5 5.7 60 3.6 N 20 26 11 14 1015.4 1015.7 0.0
02/03:00am 14.1 8.8 5.2 55 4.2 N 22 32 12 17 1015.8 1016.1 0.0
02/02:30am 14.2 9.3 5.0 54 4.4 N 20 26 11 14 1015.8 1016.1 0.0
02/02:00am 14.9 10.0 4.9 51 4.8 N 20 28 11 15 1015.9 1016.2 0.0
02/01:30am 15.1 10.2 5.0 51 4.8 N 20 28 11 15 1016.1 1016.5 0.0
02/01:00am 15.0 10.7 5.2 52 4.7 N 17 24 9 13 1016.3 1016.7 0.0
02/12:30am 14.5 9.8 5.3 54 4.4 N 19 24 10 13 1016.3 1016.7 0.0
02/12:00am 13.3 8.6 5.0 57 3.9 N 19 24 10 13 1016.4 1016.8 0.0
 
Date/Time
EST
Temp
°C
App
Temp
°C
Dew
Point
Rel
Hum
%
Delta-T
°C
Wind Press
QNH
hPa
Press
MSL
hPa
Rain
since 9 am
mm
Dir
 
Spd
km/h
Gust
km/h
Spd
kts
Gust
kts
01/11:30pm 14.1 9.3 5.5 56 4.1 N 20 26 11 14 1016.5 1016.9 0.0
01/11:00pm 14.8 10.1 6.1 56 4.2 N 20 26 11 14 1016.5 1016.9 0.0
01/10:30pm 14.3 9.9 6.4 59 3.9 N 19 24 10 13 1016.8 1017.2 0.0
01/10:00pm 14.7 10.8 7.0 60 3.8 N 17 20 9 11 1017.5 1017.8 0.0
01/09:30pm 14.8 11.7 7.4 61 3.7 N 13 17 7 9 1018.0 1018.3 0.0
01/09:00pm 14.7 10.9 7.7 63 3.5 NNE 17 20 9 11 1018.2 1018.5 0.0
01/08:30pm 14.7 11.0 8.0 64 3.4 NNE 17 20 9 11 1018.2 1018.5 0.0
01/08:00pm 14.8 10.8 8.1 64 3.4 NNE 19 24 10 13 1018.3 1018.6 0.0
01/07:30pm 15.0 10.8 8.3 64 3.4 N 20 26 11 14 1017.9 1018.2 0.0
01/07:00pm 15.3 11.1 8.3 63 3.6 N 20 24 11 13 1017.7 1018.0 0.0
01/06:30pm 15.0 10.8 8.3 64 3.4 N 20 26 11 14 1017.4 1017.7 0.0
01/06:00pm 15.3 11.8 8.8 65 3.4 NNE 17 20 9 11 1017.3 1017.6 0.0
01/05:30pm 15.2 12.0 8.4 64 3.5 NNE 15 20 8 11 1017.5 1017.8 0.0
01/05:00pm 15.6 12.1 8.6 63 3.6 N 17 20 9 11 1017.3 1017.6 0.0
01/04:30pm 16.4 12.4 8.9 61 3.9 N 20 26 11 14 1017.1 1017.5 0.0
01/04:00pm 16.1 12.6 8.8 62 3.8 N 17 24 9 13 1017.4 1017.7 0.0
01/03:30pm 17.2 12.8 8.9 58 4.4 N 22 30 12 16 1017.4 1017.7 0.0
01/03:00pm 16.4 11.6 7.3 55 4.6 N 22 32 12 17 1017.5 1017.8 0.0
01/02:30pm 16.1 11.5 8.1 59 4.1 N 22 30 12 16 1017.6 1017.9 0.0
01/02:00pm 15.6 10.4 7.4 58 4.1 N 24 32 13 17 1017.8 1018.1 0.0
01/01:30pm 15.8 10.1 6.8 55 4.5 N 26 33 14 18 1017.8 1018.1 0.0
01/01:00pm 14.8 10.5 6.9 59 3.9 N 19 28 10 15 1018.5 1018.8 0.0
01/12:30pm 13.7 9.0 6.1 60 3.7 N 20 28 11 15 1018.8 1019.2 0.0
01/12:00pm 14.1 9.2 6.7 61 3.6 N 22 30 12 16 1019.1 1019.5 0.0
01/11:30am 13.2 8.7 6.1 62 3.4 N 19 32 10 17 1019.5 1019.9 0.0
01/11:00am 13.0 6.9 4.7 57 3.9 N 26 37 14 20 1019.5 1019.9 0.0
01/10:30am 12.4 6.5 4.1 57 3.8 N 24 32 13 17 1019.7 1020.1 0.0
01/10:00am 12.0 6.6 4.7 61 3.4 N 22 32 12 17 1019.9 1020.3 0.0
01/09:30am 11.8 6.3 5.7 66 2.9 N 24 32 13 17 1019.9 1020.4 0.0
01/09:00am 10.5 5.8 5.1 69 2.5 N 19 24 10 13 1020.0 1020.5 0.0
01/08:30am 10.1 5.8 5.1 71 2.3 NNE 17 22 9 12 1019.9 1020.4 0.0
01/08:00am 9.6 6.4 5.0 73 2.1 NE 11 13 6 7 1020.2 1020.7 0.0
01/07:30am 9.1 6.3 5.1 76 1.8 NE 9 15 5 8 1019.9 1020.4 0.0
01/07:00am 8.5 4.9 4.9 78 1.6 NNE 13 17 7 9 1019.6 1020.1 0.0
01/06:30am 7.5 3.1 5.0 84 1.1 N 17 20 9 11 1019.2 1019.7 0.0
01/06:00am 6.7 1.8 4.2 84 1.1 NNE 19 20 10 11 1018.9 1019.4 0.0
01/05:30am 5.1 2.0 3.6 90 0.6 NNE 9 11 5 6 1019.3 1019.8 0.0
01/05:00am 5.3 2.1 3.2 86 0.9 NNE 9 11 5 6 1019.3 1019.8 0.0
01/04:30am 2.8 -1.1 1.3 90 0.6 NE 11 13 6 7 1019.2 1019.7 0.0
01/04:00am 6.0 4.5 3.2 82 1.2 CALM 0 0 0 0 1019.2 1019.7 0.0
01/03:30am 3.6 0.6 1.8 88 0.7 ENE 7 9 4 5 1019.4 1019.9 0.0
01/03:00am 4.2 0.5 2.4 88 0.7 ENE 11 11 6 6 1019.8 1020.3 0.0
01/02:30am 3.9 0.6 2.6 91 0.5 ENE 9 11 5 6 1020.2 1020.7 0.0
01/02:00am 3.8 -0.3 2.3 90 0.6 ENE 13 13 7 7 1020.7 1021.2 0.0
01/01:30am 4.6 1.7 2.5 86 0.9 NE 7 9 4 5 1021.0 1021.5 0.0
01/01:00am 3.6 0.2 2.0 89 0.6 NE 9 11 5 6 1020.8 1021.3 0.0
01/12:30am 3.4 0.3 1.4 87 0.8 NNE 7 9 4 5 1021.0 1021.5 0.0
01/12:00am 4.7 1.4 2.6 86 0.9 NE 9 11 5 6 1021.2 1021.7 0.0
 
Date/Time
EST
Temp
°C
App
Temp
°C
Dew
Point
Rel
Hum
%
Delta-T
°C
Wind Press
QNH
hPa
Press
MSL
hPa
Rain
since 9 am
mm
Dir
 
Spd
km/h
Gust
km/h
Spd
kts
Gust
kts
31/11:30pm 5.6 2.5 3.8 88 0.8 ENE 9 11 5 6 1021.5 1022.0 0.0
31/11:00pm 5.0 2.5 3.5 90 0.6 NNE 6 7 3 4 1021.9 1022.4 0.0
31/10:30pm 4.5 1.3 2.8 89 0.7 ENE 9 11 5 6 1022.0 1022.5 0.0
31/10:00pm 5.1 2.3 3.4 89 0.7 NE 7 9 4 5 1022.1 1022.6 0.0
31/09:30pm 5.0 1.9 3.5 90 0.6 ENE 9 11 5 6 1022.1 1022.6 0.0
31/09:00pm 4.7 1.1 3.0 89 0.7 ENE 11 11 6 6 1022.1 1022.6 0.0
31/08:30pm 5.7 3.0 3.5 86 0.9 NE 7 9 4 5 1022.0 1022.5 0.0
31/08:00pm 6.2 3.2 4.0 86 1.0 NE 9 9 5 5 1021.8 1022.3 0.0
31/07:30pm 6.6 4.0 4.3 85 1.0 NE 7 9 4 5 1021.5 1022.0 0.0
31/07:00pm 6.9 3.6 4.4 84 1.1 ENE 11 11 6 6 1021.2 1021.7 0.0

Other Formats:

Comma delimited format used in spreadsheet applications
http://www.bom.gov.au/fwo/IDN60801/IDN60801.95717.axf

JavaScript Object Notation format (JSON) in row-major order
http://www.bom.gov.au/fwo/IDN60801/IDN60801.95717.json